Weather at İskenderun Heliport

Public forecast

Using degrees Celsius for public forecast. Weather courtesy of forecast.io.

Closest aviation weather report (METAR) to İskenderun Heliport

Closest report is Hatay Airport, 15.0 nm (27.7 km) SSE.

2024/05/28 11:50 (retrieved 56 minutes ago)

LTDA 281150Z 21020KT 9999 SCT040 28/17 Q1009 NOSIG

Closest aviation forecast (TAF) to İskenderun Heliport

Closest forecast is İncirlik Air Base, 43.1 nm (79.7 km) NW.

2024/05/28 12:03 (retrieved 43 minutes ago)

TAF LTAG 281040Z 2812/2912 19012KT 9999 SCT030 BKN100 BECMG 2816/2818 VRB02KT